Time;durP1;ratioP1;P1;durP2;ratioP2;P2;SDS_P1;SDS_P2;PMS_P1;PMS_P2;Temp;Humidity;BMP_temperature;BMP_pressure;BME280_temperature;BME280_humidity;BME280_pressure;Samples;Min_cycle;Max_cycle;Signal;HPM_P1;HPM_P2
2024/03/24 00:00:19;;;;;;;0.10;0.10;;;;;;;8.19;71.48;100519.25;5049231;28;20125;-76
2024/03/24 00:02:45;;;;;;;0.10;0.10;;;;;;;8.21;71.55;100528.00;5045480;28;20087;-76
2024/03/24 00:05:11;;;;;;;0.10;0.10;;;;;;;8.21;71.85;100517.44;5041062;28;20028;-76
2024/03/24 00:07:37;;;;;;;0.10;0.10;;;;;;;8.21;71.45;100514.78;5043493;28;20032;-76
2024/03/24 00:10:04;;;;;;;0.35;0.35;;;;;;;8.16;72.24;100514.00;5041771;28;20025;-76
2024/03/24 00:12:31;;;;;;;0.10;0.10;;;;;;;8.29;71.15;100505.00;5049341;28;20033;-77
2024/03/24 00:14:57;;;;;;;0.00;0.00;;;;;;;8.30;71.55;100495.31;5049922;28;20045;-76
2024/03/24 00:17:24;;;;;;;0.10;0.10;;;;;;;8.35;71.00;100499.63;5048574;28;20036;-77
2024/03/24 00:19:50;;;;;;;0.10;0.10;;;;;;;8.39;70.24;100503.09;5051459;28;20044;-75
2024/03/24 00:22:17;;;;;;;0.10;0.10;;;;;;;8.42;71.35;100497.75;5050449;28;20052;-76
2024/03/24 00:24:43;;;;;;;0.10;0.10;;;;;;;8.38;71.46;100491.63;5051433;28;20029;-77
2024/03/24 00:27:09;;;;;;;0.10;0.10;;;;;;;8.21;71.84;100491.03;5050099;28;20025;-76
2024/03/24 00:29:35;;;;;;;0.10;0.10;;;;;;;8.25;72.30;100496.25;5050560;28;20120;-76
2024/03/24 00:32:03;;;;;;;0.10;0.10;;;;;;;8.29;72.25;100483.88;5050782;28;20040;-76
2024/03/24 00:34:29;;;;;;;0.10;0.10;;;;;;;8.26;72.45;100483.91;5050908;28;20468;-77
2024/03/24 00:36:55;;;;;;;0.10;0.10;;;;;;;8.31;71.58;100479.47;5050212;28;20029;-77
2024/03/24 00:39:21;;;;;;;0.10;0.10;;;;;;;8.28;72.32;100476.00;5049150;28;20468;-76
2024/03/24 00:41:48;;;;;;;0.10;0.10;;;;;;;8.26;72.19;100478.63;5050446;28;20043;-76
2024/03/24 00:44:14;;;;;;;0.10;0.10;;;;;;;8.29;72.56;100465.41;5052680;28;20488;-76
2024/03/24 00:46:41;;;;;;;0.17;0.17;;;;;;;8.36;71.68;100471.44;5046699;28;20099;-76
2024/03/24 00:49:07;;;;;;;0.20;0.20;;;;;;;8.38;72.11;100467.88;5053130;28;20439;-76
2024/03/24 00:51:33;;;;;;;0.30;0.30;;;;;;;8.37;72.09;100450.31;5052480;28;20037;-76
2024/03/24 00:53:59;;;;;;;0.10;0.10;;;;;;;8.41;72.36;100464.31;5048828;28;20044;-76
2024/03/24 00:56:26;;;;;;;0.10;0.10;;;;;;;8.45;72.80;100451.94;5054010;28;20036;-76
2024/03/24 00:58:52;;;;;;;0.22;0.22;;;;;;;8.47;72.19;100445.75;5040714;28;20584;-75
2024/03/24 01:01:20;;;;;;;0.10;0.10;;;;;;;8.55;72.07;100445.66;5048642;28;20033;-75
2024/03/24 01:03:46;;;;;;;0.70;0.63;;;;;;;8.56;72.06;100450.00;5049241;28;20126;-76
2024/03/24 01:06:12;;;;;;;0.15;0.15;;;;;;;8.59;72.17;100439.41;5054011;28;20037;-76
2024/03/24 01:08:38;;;;;;;0.10;0.10;;;;;;;8.55;72.23;100435.09;5052583;28;20047;-76
2024/03/24 01:11:06;;;;;;;0.10;0.10;;;;;;;8.59;71.60;100444.69;5051514;28;20029;-77
2024/03/24 01:13:32;;;;;;;0.10;0.10;;;;;;;8.69;71.14;100435.69;5052667;28;20036;-76
2024/03/24 01:15:58;;;;;;;0.10;0.10;;;;;;;8.75;71.48;100418.84;5047592;28;20055;-76
2024/03/24 01:18:24;;;;;;;0.10;0.10;;;;;;;8.77;71.15;100429.38;5052258;28;20519;-76
2024/03/24 01:20:51;;;;;;;0.10;0.10;;;;;;;8.82;70.88;100424.88;5045837;28;20036;-77
2024/03/24 01:23:17;;;;;;;0.10;0.10;;;;;;;8.96;70.41;100422.84;5044709;28;20029;-76
2024/03/24 01:25:45;;;;;;;0.10;0.10;;;;;;;8.96;69.84;100406.09;5045712;28;20040;-76
2024/03/24 01:28:11;;;;;;;0.10;0.10;;;;;;;8.92;69.41;100421.16;5040064;28;20424;-76
2024/03/24 01:30:37;;;;;;;0.00;0.00;;;;;;;8.88;69.08;100416.84;5050058;28;20025;-76
2024/03/24 01:33:04;;;;;;;0.10;0.10;;;;;;;8.89;68.92;100418.59;5050930;28;20068;-75
2024/03/24 01:35:30;;;;;;;0.47;0.47;;;;;;;8.77;68.28;100437.31;5039473;28;20033;-76
2024/03/24 01:37:57;;;;;;;0.10;0.10;;;;;;;8.65;69.08;100427.84;5044658;28;20037;-76
2024/03/24 01:40:23;;;;;;;0.10;0.10;;;;;;;8.67;69.19;100426.94;5052137;28;20110;-76
2024/03/24 01:42:49;;;;;;;0.10;0.10;;;;;;;8.56;69.77;100418.31;5040954;28;20030;-76
2024/03/24 01:45:15;;;;;;;0.10;0.10;;;;;;;8.56;69.41;100419.19;5047605;28;20037;-74
2024/03/24 01:47:41;;;;;;;0.10;0.10;;;;;;;8.47;69.85;100410.56;5051480;28;20063;-75
2024/03/24 01:50:12;;;;;;;0.20;0.20;;;;;;;8.24;71.67;100407.41;5051992;28;20060;-74
2024/03/24 01:52:38;;;;;;;0.10;0.10;;;;;;;8.28;71.72;100402.94;5053148;28;20040;-75
2024/03/24 01:55:05;;;;;;;0.10;0.10;;;;;;;8.36;71.85;100398.41;5053348;28;20124;-76
2024/03/24 01:57:33;;;;;;;0.10;0.10;;;;;;;8.34;71.97;100397.56;5051767;28;20037;-76
2024/03/24 01:59:59;;;;;;;0.20;0.20;;;;;;;8.40;71.80;100402.72;5050946;28;20045;-75
2024/03/24 02:02:25;;;;;;;0.25;0.20;;;;;;;8.32;73.17;100383.50;5051687;28;20040;-75
2024/03/24 02:04:51;;;;;;;0.10;0.10;;;;;;;8.36;73.07;100379.06;5045903;28;20555;-76
2024/03/24 02:07:19;;;;;;;0.10;0.10;;;;;;;8.40;72.22;100375.47;5051047;28;20033;-76
2024/03/24 02:09:45;;;;;;;0.10;0.10;;;;;;;8.39;72.83;100374.59;5048305;28;20108;-78
2024/03/24 02:12:11;;;;;;;0.25;0.25;;;;;;;8.36;72.79;100368.50;5053068;28;20033;-76
2024/03/24 02:14:37;;;;;;;0.10;0.10;;;;;;;8.33;72.07;100361.50;5052219;28;20496;-76
2024/03/24 02:17:04;;;;;;;0.10;0.10;;;;;;;8.41;72.46;100362.25;5051325;28;20037;-76
2024/03/24 02:19:30;;;;;;;0.10;0.10;;;;;;;8.35;72.96;100367.63;5047809;28;20520;-75
2024/03/24 02:21:56;;;;;;;0.10;0.10;;;;;;;8.45;72.15;100368.34;5052282;28;20029;-75
2024/03/24 02:24:22;;;;;;;0.10;0.10;;;;;;;8.39;73.74;100363.16;5047108;28;20041;-75
2024/03/24 02:26:49;;;;;;;0.10;0.10;;;;;;;8.36;74.13;100374.66;5049128;28;20025;-76
2024/03/24 02:29:16;;;;;;;0.68;0.68;;;;;;;8.50;73.19;100365.63;5051135;28;20040;-75
2024/03/24 02:31:42;;;;;;;0.75;0.75;;;;;;;8.57;72.64;100354.94;5042913;28;20029;-75
2024/03/24 02:34:08;;;;;;;6.13;1.00;;;;;;;8.48;72.56;100372.72;5049763;28;20569;-76
2024/03/24 02:36:34;;;;;;;0.10;0.10;;;;;;;8.55;72.25;100350.59;5048939;28;20087;-76
2024/03/24 02:39:00;;;;;;;0.10;0.10;;;;;;;8.47;72.70;100356.00;5046201;28;20033;-74
2024/03/24 02:41:27;;;;;;;0.10;0.10;;;;;;;8.55;72.22;100342.66;5047662;28;20484;-79
2024/03/24 02:43:53;;;;;;;2.60;1.00;;;;;;;8.70;72.15;100349.41;5039141;28;20087;-76
2024/03/24 02:46:19;;;;;;;0.10;0.10;;;;;;;8.59;72.52;100352.25;5043303;28;20026;-76
2024/03/24 02:48:45;;;;;;;0.10;0.10;;;;;;;8.66;72.47;100340.69;5050859;28;20033;-76
2024/03/24 02:51:11;;;;;;;0.10;0.10;;;;;;;8.61;72.19;100355.75;5053929;28;20037;-76
2024/03/24 02:53:39;;;;;;;0.10;0.10;;;;;;;8.53;72.81;100349.72;5060606;28;20044;-76
2024/03/24 02:56:05;;;;;;;0.10;0.10;;;;;;;8.68;72.11;100341.50;5062333;28;20025;-76
2024/03/24 02:58:31;;;;;;;0.00;0.00;;;;;;;8.80;72.17;100343.03;5061616;28;20096;-75
2024/03/24 03:00:58;;;;;;;0.10;0.10;;;;;;;8.70;71.61;100339.69;5059371;28;20092;-75
2024/03/24 03:03:24;;;;;;;0.10;0.10;;;;;;;8.87;71.49;100343.75;5060122;28;20120;-75
2024/03/24 03:05:50;;;;;;;0.20;0.20;;;;;;;8.81;71.59;100349.16;5060784;28;20053;-76
2024/03/24 03:08:17;;;;;;;0.10;0.10;;;;;;;8.93;71.18;100342.78;5061759;28;20063;-74
2024/03/24 03:10:43;;;;;;;0.20;0.20;;;;;;;8.91;70.68;100342.81;5052337;28;20108;-76
2024/03/24 03:13:09;;;;;;;0.13;0.13;;;;;;;8.96;70.69;100337.41;5044448;28;20037;-75
2024/03/24 03:15:35;;;;;;;0.08;0.08;;;;;;;8.88;71.02;100345.50;5045997;28;20032;-77
2024/03/24 03:18:03;;;;;;;0.13;0.13;;;;;;;9.03;70.47;100331.09;5043888;28;20045;-77
2024/03/24 03:20:30;;;;;;;0.10;0.10;;;;;;;8.93;70.46;100340.13;5050953;28;20037;-77
2024/03/24 03:22:56;;;;;;;1.48;1.38;;;;;;;8.94;70.23;100342.72;5047552;28;20029;-77
2024/03/24 03:25:22;;;;;;;2.17;0.50;;;;;;;9.01;70.00;100341.72;5038684;28;20037;-76
2024/03/24 03:27:48;;;;;;;0.10;0.10;;;;;;;9.11;69.51;100338.84;5041210;28;20404;-77
2024/03/24 03:30:14;;;;;;;0.00;0.00;;;;;;;9.10;69.86;100358.25;5045048;28;20029;-77
2024/03/24 03:32:41;;;;;;;0.10;0.10;;;;;;;8.89;68.94;100378.94;5044153;28;20037;-77
2024/03/24 03:35:07;;;;;;;0.10;0.10;;;;;;;8.96;69.27;100374.41;5049258;28;20032;-78
2024/03/24 03:37:34;;;;;;;0.10;0.10;;;;;;;8.95;69.05;100381.47;5050788;28;20108;-77
2024/03/24 03:40:00;;;;;;;0.10;0.10;;;;;;;8.71;68.85;100381.06;5051601;28;20104;-77
2024/03/24 03:42:26;;;;;;;0.10;0.10;;;;;;;8.50;69.14;100376.19;5052549;28;20047;-76
2024/03/24 03:44:52;;;;;;;0.10;0.10;;;;;;;8.29;68.39;100383.59;5052397;28;20037;-77
2024/03/24 03:47:19;;;;;;;0.10;0.10;;;;;;;8.15;68.92;100391.75;5045498;28;20477;-77
2024/03/24 03:49:53;;;;;;;0.10;0.10;;;;;;;7.92;69.37;100410.59;5046446;28;20036;-77
2024/03/24 03:52:29;;;;;;;0.10;0.10;;;;;;;7.77;69.22;100396.72;5049740;28;20607;-77
2024/03/24 03:54:59;;;;;;;0.10;0.10;;;;;;;7.82;69.52;100403.72;5051063;28;20515;-76
2024/03/24 03:57:26;;;;;;;0.13;0.13;;;;;;;7.84;69.85;100407.19;5048375;28;20033;-75
2024/03/24 03:59:53;;;;;;;0.10;0.10;;;;;;;7.86;69.83;100410.69;5049678;28;20032;-76
2024/03/24 04:02:19;;;;;;;0.10;0.10;;;;;;;7.80;70.14;100409.03;5048744;28;20028;-77
2024/03/24 04:04:45;;;;;;;0.10;0.10;;;;;;;7.70;70.12;100410.94;5044044;28;20044;-76
2024/03/24 04:07:12;;;;;;;0.10;0.10;;;;;;;7.76;69.96;100400.28;5037416;28;20118;-75
2024/03/24 04:09:38;;;;;;;0.10;0.10;;;;;;;7.76;69.86;100395.03;5050279;28;20052;-74
2024/03/24 04:12:05;;;;;;;0.10;0.10;;;;;;;7.71;70.55;100401.25;5049362;28;20036;-75
2024/03/24 04:14:31;;;;;;;0.10;0.10;;;;;;;7.59;70.72;100394.41;5051712;28;20500;-75
2024/03/24 04:16:58;;;;;;;0.10;0.10;;;;;;;7.54;71.30;100383.03;5050091;28;20091;-75
2024/03/24 04:19:24;;;;;;;4.60;0.82;;;;;;;7.56;71.05;100382.16;5048764;28;20033;-73
2024/03/24 04:21:50;;;;;;;0.10;0.10;;;;;;;7.58;71.24;100384.75;5049477;28;20021;-75
2024/03/24 04:24:17;;;;;;;0.10;0.10;;;;;;;7.55;71.73;100385.66;5054239;28;20033;-76
2024/03/24 04:26:43;;;;;;;0.10;0.10;;;;;;;7.56;71.34;100392.69;5045733;28;20117;-77
2024/03/24 04:29:10;;;;;;;0.10;0.10;;;;;;;7.55;71.16;100403.22;5053021;28;20504;-76
2024/03/24 04:31:36;;;;;;;0.10;0.10;;;;;;;7.49;72.27;100414.75;5052041;28;20051;-75
2024/03/24 04:34:02;;;;;;;0.10;0.10;;;;;;;7.33;72.13;100379.84;5043707;28;20044;-76
2024/03/24 04:36:29;;;;;;;0.10;0.10;;;;;;;7.33;71.55;100384.22;5050804;28;20563;-76
2024/03/24 04:38:55;;;;;;;0.13;0.13;;;;;;;7.42;71.61;100389.38;5053530;28;20041;-76
2024/03/24 04:41:21;;;;;;;0.10;0.10;;;;;;;7.35;71.72;100385.97;5053738;28;20025;-76
2024/03/24 04:43:47;;;;;;;0.10;0.10;;;;;;;7.33;71.40;100382.47;5054305;28;20032;-76
2024/03/24 04:46:13;;;;;;;0.10;0.10;;;;;;;7.34;71.51;100401.78;5053804;28;20547;-76
2024/03/24 04:48:40;;;;;;;0.10;0.10;;;;;;;7.35;71.04;100382.44;5052582;28;20037;-76
2024/03/24 04:51:06;;;;;;;0.10;0.10;;;;;;;7.32;71.50;100383.34;5049862;28;20037;-76
2024/03/24 04:53:32;;;;;;;0.10;0.10;;;;;;;7.36;71.60;100371.00;5050548;28;20040;-76
2024/03/24 04:55:59;;;;;;;0.10;0.10;;;;;;;7.29;71.22;100372.88;5048695;28;20029;-75
2024/03/24 04:58:25;;;;;;;0.10;0.10;;;;;;;7.30;71.44;100377.22;5052244;28;20047;-74
2024/03/24 05:00:51;;;;;;;0.10;0.10;;;;;;;7.33;70.86;100373.66;5052097;28;20528;-75
2024/03/24 05:03:17;;;;;;;0.10;0.10;;;;;;;7.36;71.19;100366.59;5053506;28;20052;-75
2024/03/24 05:05:47;;;;;;;0.32;0.32;;;;;;;7.36;71.32;100369.22;5048776;28;20491;-76
2024/03/24 05:08:14;;;;;;;0.10;0.10;;;;;;;7.35;71.71;100371.91;5053017;28;20036;-75
2024/03/24 05:10:42;;;;;;;0.10;0.10;;;;;;;7.41;70.71;100361.25;5054150;28;20056;-76
2024/03/24 05:13:08;;;;;;;0.10;0.10;;;;;;;7.40;71.47;100373.59;5046714;28;20029;-77
2024/03/24 05:15:37;;;;;;;0.10;0.10;;;;;;;7.47;71.06;100371.72;5051162;28;20045;-75
2024/03/24 05:18:07;;;;;;;0.10;0.10;;;;;;;7.47;71.35;100370.88;5052630;28;20126;-76
2024/03/24 05:20:36;;;;;;;0.10;0.10;;;;;;;7.43;71.74;100367.41;5053444;28;20039;-76
2024/03/24 05:23:03;;;;;;;0.10;0.10;;;;;;;7.49;71.15;100379.59;5048447;28;20033;-76
2024/03/24 05:25:30;;;;;;;1.58;1.48;;;;;;;7.49;71.22;100382.22;5053863;28;20552;-76
2024/03/24 05:27:56;;;;;;;0.10;0.10;;;;;;;7.52;71.61;100384.84;5052317;28;20459;-76
2024/03/24 05:30:23;;;;;;;0.10;0.10;;;;;;;7.43;71.79;100385.84;5052723;28;20083;-76
2024/03/24 05:32:51;;;;;;;0.10;0.10;;;;;;;7.54;71.25;100393.56;5048548;28;20064;-75
2024/03/24 05:35:17;;;;;;;0.10;0.10;;;;;;;7.55;72.19;100400.59;5052782;28;20029;-76
2024/03/24 05:37:44;;;;;;;0.10;0.10;;;;;;;7.57;72.37;100398.81;5048920;28;20496;-76
2024/03/24 05:40:13;;;;;;;0.10;0.10;;;;;;;7.64;72.03;100399.59;5052426;28;20132;-76
2024/03/24 05:42:39;;;;;;;1.48;0.85;;;;;;;7.67;72.52;100402.19;5052262;28;20531;-76
2024/03/24 05:45:06;;;;;;;0.52;0.50;;;;;;;7.82;72.48;100404.59;5050833;28;20036;-75
2024/03/24 05:47:32;;;;;;;0.10;0.10;;;;;;;7.86;72.45;100405.41;5051780;28;20021;-76
2024/03/24 05:49:58;;;;;;;0.10;0.10;;;;;;;7.90;71.81;100407.09;5052395;28;20029;-77
2024/03/24 05:52:24;;;;;;;0.10;0.10;;;;;;;7.98;72.28;100399.94;5050573;28;20033;-77
2024/03/24 05:54:51;;;;;;;0.57;0.57;;;;;;;8.04;71.67;100409.53;5049486;28;20583;-76
2024/03/24 05:57:17;;;;;;;0.10;0.10;;;;;;;8.18;71.20;100401.38;5051384;28;20029;-76
2024/03/24 05:59:43;;;;;;;0.10;0.10;;;;;;;8.20;70.57;100404.84;5055787;28;20044;-76
2024/03/24 06:02:09;;;;;;;0.10;0.10;;;;;;;8.16;70.83;100408.44;5051156;28;20036;-77
2024/03/24 06:04:35;;;;;;;0.10;0.10;;;;;;;8.19;70.06;100413.69;5063563;28;20069;-76
2024/03/24 06:07:03;;;;;;;0.10;0.10;;;;;;;8.09;70.93;100419.09;5054152;28;20143;-76
2024/03/24 06:09:29;;;;;;;0.10;0.10;;;;;;;8.26;70.35;100412.66;5050401;28;20028;-76
2024/03/24 06:11:55;;;;;;;0.10;0.10;;;;;;;8.26;69.78;100425.84;5052431;28;20457;-77
2024/03/24 06:14:22;;;;;;;0.10;0.10;;;;;;;8.39;69.39;100421.25;5048356;28;20045;-77
2024/03/24 06:16:48;;;;;;;0.10;0.10;;;;;;;8.40;69.38;100428.28;5051028;28;20029;-76
2024/03/24 06:19:14;;;;;;;0.10;0.10;;;;;;;8.36;69.19;100435.38;5051600;28;20052;-76
2024/03/24 06:21:40;;;;;;;0.10;0.10;;;;;;;8.42;68.78;100421.19;5052719;28;20040;-76
2024/03/24 06:24:07;;;;;;;0.13;0.13;;;;;;;8.60;68.12;100420.03;5051221;28;20044;-78
2024/03/24 06:26:33;;;;;;;0.10;0.10;;;;;;;8.60;68.30;100420.03;5051168;28;20045;-79
2024/03/24 06:28:59;;;;;;;0.10;0.10;;;;;;;8.56;68.49;100419.19;5048992;28;20032;-78
2024/03/24 06:31:26;;;;;;;0.73;0.73;;;;;;;8.54;67.77;100421.00;5052506;28;20052;-77
2024/03/24 06:33:56;;;;;;;0.25;0.25;;;;;;;8.36;68.73;100421.28;5051654;28;20111;-79
2024/03/24 06:36:22;;;;;;;0.10;0.10;;;;;;;8.36;67.78;100416.00;5055142;28;20028;-77
2024/03/24 06:38:48;;;;;;;0.10;0.10;;;;;;;8.54;68.18;100428.06;5045054;28;20033;-78
2024/03/24 06:41:14;;;;;;;0.10;0.10;;;;;;;8.48;67.95;100444.88;5041786;28;20037;-77
2024/03/24 06:43:42;;;;;;;3.30;1.08;;;;;;;8.45;67.64;100414.97;5055676;28;20028;-78
2024/03/24 06:46:09;;;;;;;1.10;1.10;;;;;;;8.28;68.27;100434.63;5055832;28;20029;-77
2024/03/24 06:48:36;;;;;;;0.10;0.10;;;;;;;8.33;68.02;100422.22;5051642;28;20488;-79
2024/03/24 06:51:03;;;;;;;2.95;2.75;;;;;;;8.36;67.80;100418.66;5055044;28;20029;-79
2024/03/24 06:53:29;;;;;;;0.10;0.10;;;;;;;8.40;67.93;100408.00;5047983;28;20040;-79
2024/03/24 06:55:55;;;;;;;0.10;0.10;;;;;;;8.43;67.78;100413.22;5050977;28;20036;-79
2024/03/24 06:58:22;;;;;;;1.35;0.73;;;;;;;8.38;66.98;100433.56;5049067;28;20044;-79
2024/03/24 07:00:55;;;;;;;0.40;0.40;;;;;;;8.51;67.26;100425.44;5052401;28;20120;-79
2024/03/24 07:03:22;;;;;;;0.10;0.10;;;;;;;8.65;66.89;100423.44;5052777;28;20035;-79
2024/03/24 07:05:48;;;;;;;0.10;0.10;;;;;;;8.64;66.38;100420.84;5050669;28;20029;-79
2024/03/24 07:08:15;;;;;;;0.10;0.10;;;;;;;8.63;66.73;100425.22;5048517;28;20036;-77
2024/03/24 07:10:41;;;;;;;0.60;0.60;;;;;;;8.65;66.08;100428.72;5046553;28;20464;-79
2024/03/24 07:13:07;;;;;;;0.30;0.30;;;;;;;8.68;66.12;100436.56;5049794;28;20116;-78
2024/03/24 07:15:33;;;;;;;0.10;0.10;;;;;;;8.59;65.76;100428.84;5052404;28;20033;-79
2024/03/24 07:17:59;;;;;;;0.65;0.65;;;;;;;8.73;65.68;100434.75;5044682;28;20029;-78
2024/03/24 07:20:26;;;;;;;0.10;0.10;;;;;;;8.74;65.68;100422.41;5054534;28;20033;-79
2024/03/24 07:22:53;;;;;;;0.10;0.10;;;;;;;8.79;64.71;100431.09;5055474;28;20037;-78
2024/03/24 07:25:19;;;;;;;0.10;0.10;;;;;;;8.74;64.61;100433.81;5053916;28;20037;-78
2024/03/24 07:27:45;;;;;;;0.10;0.10;;;;;;;8.84;65.19;100450.38;5051198;28;20082;-78
2024/03/24 07:30:12;;;;;;;0.10;0.10;;;;;;;8.91;64.39;100445.84;5050738;28;20033;-78
2024/03/24 07:32:38;;;;;;;0.10;0.10;;;;;;;8.96;64.62;100459.84;5041279;28;20036;-79
2024/03/24 07:35:04;;;;;;;0.15;0.15;;;;;;;9.10;63.52;100445.47;5047973;28;20037;-78
2024/03/24 07:37:32;;;;;;;0.20;0.20;;;;;;;9.22;63.99;100450.50;5052026;28;20048;-79
2024/03/24 07:39:58;;;;;;;0.10;0.10;;;;;;;9.27;63.56;100442.47;5055174;28;20459;-78
2024/03/24 07:42:25;;;;;;;0.10;0.10;;;;;;;9.39;63.32;100451.03;5046203;28;20059;-78
2024/03/24 07:44:51;;;;;;;0.05;0.05;;;;;;;9.34;62.70;100446.75;5054566;28;20040;-79
2024/03/24 07:47:18;;;;;;;5.82;0.75;;;;;;;9.48;62.36;100439.41;5071659;28;20300;-75
2024/03/24 07:49:44;;;;;;;0.10;0.10;;;;;;;9.62;62.77;100449.66;5061630;28;20025;-75
2024/03/24 07:52:11;;;;;;;0.10;0.10;;;;;;;9.68;62.15;100440.69;5065091;28;20084;-77
2024/03/24 07:54:37;;;;;;;0.10;0.10;;;;;;;9.70;62.14;100439.75;5061370;28;20048;-75
2024/03/24 07:57:03;;;;;;;0.20;0.20;;;;;;;9.60;61.81;100479.69;5066606;28;20029;-77
2024/03/24 07:59:29;;;;;;;0.35;0.35;;;;;;;9.52;62.27;100461.31;5067968;28;20485;-74
2024/03/24 08:01:56;;;;;;;0.10;0.10;;;;;;;9.52;61.87;100459.56;5067417;28;20045;-76
2024/03/24 08:04:22;;;;;;;0.20;0.20;;;;;;;9.67;61.97;100453.06;5056120;28;20036;-77
2024/03/24 08:06:48;;;;;;;0.10;0.10;;;;;;;9.66;61.66;100451.31;5053013;28;20029;-77
2024/03/24 08:09:14;;;;;;;0.10;0.10;;;;;;;9.71;61.37;100467.09;5052046;28;20047;-77
2024/03/24 08:11:41;;;;;;;0.10;0.10;;;;;;;9.62;60.98;100462.88;5043830;28;20415;-77
2024/03/24 08:14:07;;;;;;;0.10;0.10;;;;;;;9.68;61.25;100461.88;5052531;28;20476;-77
2024/03/24 08:16:33;;;;;;;0.10;0.10;;;;;;;9.67;61.49;100484.81;5049775;28;20041;-76
2024/03/24 08:18:59;;;;;;;0.57;0.57;;;;;;;9.62;60.53;100462.88;5048932;28;20033;-77
2024/03/24 08:21:25;;;;;;;0.20;0.20;;;;;;;9.73;61.07;100462.63;5053637;28;20033;-77
2024/03/24 08:23:52;;;;;;;0.10;0.10;;;;;;;9.63;60.85;100475.22;5054744;28;20041;-75
2024/03/24 08:26:18;;;;;;;0.10;0.10;;;;;;;9.76;60.77;100467.84;5053434;28;20045;-76
2024/03/24 08:28:44;;;;;;;0.10;0.10;;;;;;;9.81;60.56;100465.13;5052107;28;20025;-77
2024/03/24 08:31:10;;;;;;;0.10;0.10;;;;;;;9.74;61.18;100489.97;5046416;28;20140;-76
2024/03/24 08:33:36;;;;;;;0.10;0.10;;;;;;;9.76;60.45;100467.84;5053065;28;20107;-78
2024/03/24 08:36:03;;;;;;;0.10;0.10;;;;;;;9.76;60.16;100478.44;5049449;28;20420;-77
2024/03/24 08:38:29;;;;;;;0.10;0.10;;;;;;;9.84;60.02;100465.91;5050061;28;20481;-78
2024/03/24 08:40:55;;;;;;;1.10;1.00;;;;;;;9.80;60.00;100463.38;5054919;28;20091;-77
2024/03/24 08:43:22;;;;;;;0.10;0.10;;;;;;;9.72;59.75;100466.19;5054091;28;20029;-79
2024/03/24 08:45:48;;;;;;;0.10;0.10;;;;;;;9.90;59.69;100467.53;5053693;28;20143;-78
2024/03/24 08:48:14;;;;;;;0.10;0.10;;;;;;;9.94;59.81;100503.59;5049064;28;20040;-76
2024/03/24 08:50:42;;;;;;;0.03;0.03;;;;;;;10.11;59.68;100483.84;5051157;28;20111;-77
2024/03/24 08:53:08;;;;;;;0.05;0.05;;;;;;;10.31;59.36;100470.97;5044935;28;20112;-75
2024/03/24 08:55:34;;;;;;;0.10;0.10;;;;;;;10.20;59.05;100479.19;5049160;28;20489;-76
2024/03/24 08:58:00;;;;;;;0.10;0.10;;;;;;;10.22;59.89;100473.84;5046606;28;20033;-76
2024/03/24 09:00:27;;;;;;;1.42;1.02;;;;;;;10.21;60.28;100506.53;5043403;28;20042;-77
2024/03/24 09:02:53;;;;;;;0.10;0.10;;;;;;;9.57;62.26;100544.13;5044714;28;20407;-73
2024/03/24 09:05:19;;;;;;;0.03;0.03;;;;;;;8.92;63.64;100541.84;5042050;28;20108;-75
2024/03/24 09:07:46;;;;;;;0.20;0.20;;;;;;;8.54;65.48;100520.47;5052336;28;20032;-76
2024/03/24 09:10:12;;;;;;;0.10;0.10;;;;;;;8.09;67.71;100535.19;5050698;28;20033;-76
2024/03/24 09:12:38;;;;;;;0.10;0.10;;;;;;;8.06;67.86;100522.06;5053649;28;20114;-76
2024/03/24 09:15:05;;;;;;;0.10;0.10;;;;;;;8.01;68.82;100550.28;5042133;28;20037;-76
2024/03/24 09:17:31;;;;;;;0.10;0.10;;;;;;;7.96;69.50;100533.63;5042841;28;20151;-76
2024/03/24 09:19:57;;;;;;;0.10;0.10;;;;;;;7.89;70.71;100540.75;5051375;28;20040;-76
2024/03/24 09:22:23;;;;;;;0.10;0.10;;;;;;;7.93;69.61;100526.63;5050959;28;20029;-76
2024/03/24 09:24:49;;;;;;;0.10;0.10;;;;;;;8.03;70.51;100531.78;5052699;28;20025;-76
2024/03/24 09:27:15;;;;;;;0.10;0.10;;;;;;;8.17;70.35;100542.13;5052321;28;20488;-76
2024/03/24 09:29:42;;;;;;;0.20;0.20;;;;;;;8.33;70.53;100532.22;5053523;28;20033;-77
2024/03/24 09:32:08;;;;;;;0.10;0.10;;;;;;;8.56;69.76;100532.75;5053094;28;20403;-76
2024/03/24 09:34:35;;;;;;;0.10;0.10;;;;;;;8.74;70.24;100536.84;5053716;28;20033;-78
2024/03/24 09:37:01;;;;;;;0.05;0.05;;;;;;;8.70;69.94;100537.78;5054081;28;20033;-74
2024/03/24 09:39:27;;;;;;;0.10;0.10;;;;;;;8.88;69.57;100547.19;5052197;28;20025;-75
2024/03/24 09:41:55;;;;;;;0.00;0.00;;;;;;;8.98;69.02;100537.28;5047119;28;20104;-74
2024/03/24 09:44:22;;;;;;;0.10;0.10;;;;;;;9.00;69.58;100535.50;5052797;28;20041;-76
2024/03/24 09:46:49;;;;;;;0.30;0.30;;;;;;;9.05;69.59;100543.34;5050650;28;20048;-77
2024/03/24 09:49:15;;;;;;;0.10;0.10;;;;;;;9.02;69.39;100546.94;5045616;28;20041;-74
2024/03/24 09:51:43;;;;;;;0.10;0.10;;;;;;;9.02;69.28;100544.28;5050661;28;20033;-75
2024/03/24 09:54:11;;;;;;;1.95;1.85;;;;;;;8.88;69.12;100567.44;5049097;28;20035;-76
2024/03/24 09:56:38;;;;;;;0.10;0.10;;;;;;;9.10;68.85;100543.25;5042711;28;20096;-77
2024/03/24 09:59:06;;;;;;;0.10;0.10;;;;;;;9.13;68.98;100545.84;5043268;28;20203;-77
2024/03/24 10:01:33;;;;;;;0.03;0.03;;;;;;;9.19;68.62;100546.59;5054229;28;20158;-77
2024/03/24 10:04:00;;;;;;;0.10;0.10;;;;;;;9.30;68.58;100556.97;5053549;28;20523;-75
2024/03/24 10:06:27;;;;;;;0.10;0.10;;;;;;;9.40;68.22;100541.81;5054878;28;20033;-76
2024/03/24 10:08:54;;;;;;;0.13;0.13;;;;;;;9.37;67.53;100555.97;5052585;28;20032;-77
2024/03/24 10:11:29;;;;;;;0.10;0.10;;;;;;;9.28;67.28;100537.63;5047203;28;20127;-77
2024/03/24 10:13:56;;;;;;;8.15;2.35;;;;;;;9.27;67.54;100557.03;5049440;28;20113;-77
2024/03/24 10:16:23;;;;;;;2.40;2.30;;;;;;;9.26;67.45;100549.13;5042334;28;20037;-77
2024/03/24 10:18:51;;;;;;;4.18;0.95;;;;;;;9.31;67.72;100540.22;5042116;28;20114;-77
2024/03/24 10:21:18;;;;;;;0.10;0.10;;;;;;;9.26;68.11;100550.00;5040202;28;20033;-78
2024/03/24 10:23:45;;;;;;;0.10;0.10;;;;;;;9.30;68.41;100537.59;5042564;28;20025;-77
2024/03/24 10:26:19;;;;;;;0.10;0.10;;;;;;;9.33;68.26;100537.53;5040591;28;20030;-77
2024/03/24 10:28:46;;;;;;;0.10;0.10;;;;;;;9.20;68.83;100563.34;5044327;28;20027;-77
2024/03/24 10:31:13;;;;;;;0.17;0.17;;;;;;;9.24;69.13;100554.44;5036636;28;20029;-80
2024/03/24 10:33:39;;;;;;;0.10;0.10;;;;;;;9.41;68.96;100545.31;5041417;28;20057;-76
2024/03/24 10:36:07;;;;;;;0.20;0.20;;;;;;;9.31;68.78;100556.06;5041918;28;20047;-76
2024/03/24 10:38:36;;;;;;;3.58;0.85;;;;;;;9.31;67.64;100548.16;5036776;28;20443;-76
2024/03/24 10:41:04;;;;;;;0.10;0.10;;;;;;;9.50;68.08;100547.78;5035604;28;20025;-77
2024/03/24 10:43:31;;;;;;;0.10;0.10;;;;;;;9.58;68.13;100561.69;5035602;28;20646;-77
2024/03/24 10:45:57;;;;;;;0.10;0.10;;;;;;;9.53;67.53;100556.53;5034112;28;20035;-76
2024/03/24 10:51:09;;;;;;;0.10;0.10;;;;;;;9.59;66.63;100570.53;5086333;27;20452;-77
2024/03/24 10:53:36;;;;;;;0.45;0.45;;;;;;;9.62;66.65;100576.63;5072221;28;20035;-77
2024/03/24 10:56:04;;;;;;;0.10;0.10;;;;;;;9.71;66.52;100555.25;5077202;28;20029;-76
2024/03/24 10:58:32;;;;;;;0.20;0.20;;;;;;;9.92;65.56;100541.59;5068651;28;20044;-78
2024/03/24 11:00:59;;;;;;;0.10;0.10;;;;;;;10.12;65.68;100546.44;5067890;28;20037;-77
2024/03/24 11:03:28;;;;;;;0.10;0.10;;;;;;;10.41;66.03;100548.44;5072653;28;20369;-77
2024/03/24 11:05:56;;;;;;;0.10;0.10;;;;;;;10.47;64.68;100555.38;5076730;28;20047;-77
2024/03/24 11:08:23;;;;;;;0.30;0.30;;;;;;;10.56;63.97;100559.59;5076032;28;20028;-78
2024/03/24 11:10:54;;;;;;;3.15;1.95;;;;;;;10.39;64.35;100594.41;5070756;28;20540;-78
2024/03/24 11:13:26;;;;;;;0.20;0.20;;;;;;;10.64;63.93;100563.78;5071982;28;20708;-76
2024/03/24 11:15:52;;;;;;;0.20;0.20;;;;;;;10.61;61.85;100563.00;5079697;28;20028;-77
2024/03/24 11:18:35;;;;;;;0.10;0.10;;;;;;;10.67;61.32;100557.53;5077054;28;20566;-77
2024/03/24 11:21:05;;;;;;;0.15;0.15;;;;;;;10.84;61.60;100565.03;5074851;28;20100;-76
2024/03/24 11:23:40;;;;;;;0.50;0.50;;;;;;;10.81;61.83;100554.53;5070870;28;20021;-77
2024/03/24 11:26:13;;;;;;;0.10;0.10;;;;;;;10.56;62.51;100567.53;5070948;28;20021;-76
2024/03/24 11:36:40;;;;;;;0.20;0.20;;;;;;;9.79;64.47;100593.91;5094614;27;20388;-76
2024/03/24 11:39:10;;;;;;;0.10;0.10;;;;;;;9.73;64.86;100583.47;5090685;28;20068;-77
2024/03/24 11:41:37;;;;;;;0.15;0.15;;;;;;;9.79;64.50;100602.72;5094779;28;20406;-78